Plymouth Light

42° 00' 12"N, 70° 36' 04"W, Elevation 54 ft.
Eastern Time

Hourly observations for the last 72 hours

Date Time Temperature (°F) Humi-
dity

(%)
Wind
(mph)
Pressure Rain (in) Sun
(W/m2)
ET
(in)
Air Dew 6 Hour 1 Hr 3 Hr 6 Hr Day
Alt
(in)
Sea
Level

(mb)
Max Min
1 13:00 55.7 54.0 94 ENE 14 G 19 30.07 1018.2 0.07 0.27 21 0.031
1 12:00 56.0 53.7 92 E 9 G 15 30.09 1019.1 0.06 0.20 65 0.029
1 11:00 56.1 52.9 89 E 10 G 13 30.11 1019.8 0.06 0.14 0.14 58 0.027
1 10:00 55.2 51.7 88 NE 9 G 14 30.12 1020.0 0.08 0.08 49 0.025
1 09:00 57.2 53.1 86 ENE 8 G 11 30.12 1020.1 0.00 33 0.023
1 08:00 57.7 52.6 57.7 56.3 83 ENE 8 G 13 30.10 1019.4 0.00 18 0.021
1 07:00 57.4 52.0 82 ENE 7 G 14 30.10 1019.3 0.00 7 0.020
1 06:00 57.0 50.9 80 ENE 7 G 12 30.11 1019.6 0.00 0 0.019
1 05:00 57.1 50.3 78 E 8 G 12 30.10 1019.4 0.00 0 0.017
1 04:00 56.6 48.8 75 ENE 7 G 12 30.10 1019.2 0.00 0 0.015
1 03:00 56.5 49.4 77 E 8 G 11 30.11 1019.7 0.00 0 0.013
1 02:00 56.3 49.5 56.4 55.8 78 ENE 7 G 10 30.12 1020.0 0.00 0 0.012
1 01:00 56.2 49.4 78 ENE 4 G 8 30.14 1020.6 0.00 0 0.011
1 00:00 56.2 48.7 76 ENE 4 G 5 30.15 1021.0 0.00 0 0.010
30 23:00 56.1 48.3 75 ESE 3 G 4 30.16 1021.4 0.00 0 0.009
30 22:00 56.2 48.4 75 E 2 G 4 30.17 1021.9 0.00 0 0.008
30 21:00 56.1 48.6 76 E 4 G 7 30.18 1022.1 0.00 0 0.007
30 20:00 56.0 49.6 58.1 55.4 79 E 4 G 8 30.19 1022.5 0.00 0 0.006
30 19:00 55.6 49.2 79 NE 5 G 9 30.19 1022.5 0.00 0 0.005
30 18:00 55.6 48.9 78 NE 7 G 10 30.19 1022.6 0.00 23 0.003
30 17:00 56.5 50.1 79 NE 5 G 7 30.22 1023.4 0.00 127 0.000
30 16:00 57.2 50.4 78 ENE 6 G 10 30.23 1023.8 0.00 234 0.104
30 15:00 57.7 51.6 80 NE 8 G 12 30.23 1023.7 0.00 350 0.095
30 14:00 58.1 51.3 59.1 57.1 78 NE 10 G 14 30.24 1024.1 0.00 550 0.084
30 13:00 58.4 51.9 79 NE 9 G 16 30.28 1025.4 0.00 232 0.071
30 12:00 58.6 51.8 78 NE 11 G 15 30.29 1025.7 0.00 714 0.058
30 11:00 58.1 51.3 78 ENE 9 G 13 30.31 1026.3 0.00 248 0.048
30 10:00 58.4 51.9 79 NE 12 G 16 30.32 1026.7 0.00 571 0.038
30 09:00 58.0 51.9 80 ENE 10 G 15 30.31 1026.4 0.00 285 0.030
30 08:00 57.2 51.4 58.0 56.8 81 ENE 13 G 17 30.30 1026.2 0.00 123 0.026
30 07:00 57.2 52.1 83 E 15 G 19 30.30 1026.1 0.00 19 0.024
30 06:00 57.7 52.9 84 ENE 13 G 20 30.29 1025.9 0.00 0 0.022
30 05:00 57.5 51.4 80 ENE 12 G 16 30.29 1025.8 0.00 0 0.020
30 04:00 57.1 51.7 82 NE 12 G 18 30.28 1025.4 0.00 0 0.018
30 03:00 57.4 51.6 81 NE 13 G 16 30.29 1025.8 0.00 0 0.016
30 02:00 57.8 51.0 58.2 55.7 78 ENE 9 G 13 30.30 1026.1 0.00 0 0.014
30 01:00 57.1 51.0 80 NNE 7 G 10 30.30 1026.0 0.00 0 0.013
30 00:00 57.1 50.0 77 NNE 4 G 10 30.30 1026.2 0.00 0 0.012
29 23:00 56.9 49.8 77 NNE 6 G 12 30.31 1026.4 0.00 0 0.011
29 22:00 57.6 51.8 81 NNW 3 G 10 30.30 1026.1 0.00 0 0.010
29 21:00 58.1 52.0 80 NNE 7 G 12 30.29 1025.9 0.00 0 0.009
29 20:00 57.8 52.0 60.0 57.8 81 NE 5 G 6 30.29 1025.7 0.00 0 0.008
29 19:00 58.4 52.3 80 E 5 G 10 30.28 1025.6 0.00 0 0.007
29 18:00 58.2 52.1 80 ENE 7 G 9 30.27 1025.2 0.00 32 0.005
29 17:00 58.5 52.7 81 ENE 7 G 10 30.27 1025.1 0.00 211 0.000
29 16:00 59.1 52.9 80 ENE 9 G 13 30.27 1025.2 0.00 401 0.109
29 15:00 59.8 53.3 79 NE 8 G 12 30.27 1025.1 0.00 554 0.096
29 14:00 60.0 53.5 60.2 54.9 79 NE 10 G 16 30.28 1025.3 0.00 654 0.081
29 13:00 59.8 53.3 79 NNE 12 G 18 30.28 1025.4 0.00 705 0.065
29 12:00 59.2 53.4 81 NNE 13 G 19 30.28 1025.3 0.00 638 0.049
29 11:00 59.3 53.5 81 NNE 11 G 19 30.28 1025.4 0.00 606 0.035
29 10:00 57.9 52.8 83 N 7 G 15 30.27 1025.2 0.00 445 0.025
29 09:00 57.5 53.0 85 N 6 G 16 30.25 1024.5 0.00 302 0.018
29 08:00 55.0 51.2 58.5 53.1 87 N 5 G 13 30.24 1024.0 0.00 58 0.015
29 07:00 53.4 49.9 88 NNW 5 G 11 30.23 1023.6 0.00 16 0.014
29 06:00 53.6 50.1 88 NNW 4 G 9 30.22 1023.3 0.00 0 0.013
29 05:00 54.7 50.9 87 N 4 G 11 30.19 1022.4 0.00 0 0.012
29 04:00 55.6 52.1 88 NNW 4 G 10 30.18 1022.0 0.00 0 0.012
29 03:00 56.4 52.6 87 NNW 3 G 10 30.17 1021.5 0.00 0 0.012
29 02:00 58.4 53.9 62.9 58.1 85 N 5 G 13 30.16 1021.4 0.00 0 0.011
29 01:00 58.6 53.8 84 N 5 G 13 30.14 1020.7 0.00 0 0.010
29 00:00 58.7 53.6 83 N 6 G 11 30.14 1020.6 0.00 0 0.009
28 23:00 59.1 54.3 84 NNW 5 G 11 30.13 1020.4 0.00 0 0.008
28 22:00 59.5 55.6 87 NNW 2 G 6 30.12 1019.9 0.00 0 0.008
28 21:00 61.8 57.2 85 W 2 G 3 30.11 1019.6 0.00 0 0.008
28 20:00 62.9 57.0 69.7 62.5 81 SW 3 G 5 30.09 1018.9 0.00 0 0.007
28 19:00 62.7 58.5 86 S 3 G 5 30.06 1017.9 0.00 0 0.007
28 18:00 63.7 58.4 83 S 2 G 6 30.04 1017.3 0.00 39 0.006
28 17:00 66.1 58.0 75 E 0 G 4 30.02 1016.6 0.00 230 0.000
28 16:00 64.1 57.5 79 E 3 G 8 30.00 1016.0 0.00 411 0.131
28 15:00 69.3 55.7 62 WNW 7 G 13 29.99 1015.6 0.00 677 0.118
28 14:00 67.3 55.1 67.4 56.9 65 WNW 9 G 12 29.99 1015.5 0.00 204 0.107

Data generated by WxSolution Version 1.9.1.1, Build 2017.11.27.